Time;durP1;ratioP1;P1;durP2;ratioP2;P2;SDS_P1;SDS_P2;PMS_P1;PMS_P2;Temp;Humidity;BMP_temperature;BMP_pressure;BME280_temperature;BME280_humidity;BME280_pressure;Samples;Min_cycle;Max_cycle;Signal;HPM_P1;HPM_P2
2023/10/28 00:00:02;;;;;;;18.48;11.48;;;;;;;-144.73;100.00;54711.47;4858061;29;20425;-75
2023/10/28 00:02:27;;;;;;;24.02;12.10;;;;;;;-144.73;100.00;54621.16;4859132;29;20036;-75
2023/10/28 00:04:53;;;;;;;19.40;10.18;;;;;;;-144.73;100.00;54695.06;4848485;29;20042;-76
2023/10/28 00:07:18;;;;;;;19.65;11.02;;;;;;;-144.73;100.00;54686.84;4858743;29;20093;-75
2023/10/28 00:09:43;;;;;;;18.83;10.27;;;;;;;-144.73;100.00;54633.47;4856887;29;20042;-75
2023/10/28 00:12:09;;;;;;;19.60;11.40;;;;;;;-144.73;100.00;54662.22;4855651;29;20112;-76
2023/10/28 00:14:34;;;;;;;18.60;10.50;;;;;;;-144.73;100.00;54645.78;4853875;29;20042;-76
2023/10/28 00:16:59;;;;;;;21.10;11.77;;;;;;;-144.73;100.00;54699.16;4856387;29;20534;-76
2023/10/28 00:19:25;;;;;;;17.13;9.57;;;;;;;-144.73;100.00;54715.59;4838929;29;20070;-75
2023/10/28 00:21:51;;;;;;;15.70;11.20;;;;;;;-144.73;100.00;54701.22;4840694;29;20045;-75
2023/10/28 00:24:16;;;;;;;17.65;10.50;;;;;;;-144.73;100.00;54725.84;4842445;29;20030;-75
2023/10/28 00:26:42;;;;;;;16.35;10.48;;;;;;;-144.73;100.00;54658.13;4842379;29;20041;-75
2023/10/28 00:29:07;;;;;;;17.85;11.98;;;;;;;-144.73;100.00;54678.63;4842289;29;20038;-75
2023/10/28 00:31:33;;;;;;;20.85;11.35;;;;;;;-144.73;100.00;54686.84;4844685;29;20034;-75
2023/10/28 00:33:58;;;;;;;17.52;10.48;;;;;;;-144.73;100.00;54715.59;4860484;29;20048;-75
2023/10/28 00:36:24;;;;;;;15.55;10.80;;;;;;;-144.73;100.00;54686.84;4860918;29;20027;-75
2023/10/28 00:38:49;;;;;;;17.05;9.88;;;;;;;-144.73;100.00;54686.84;4860501;29;20116;-75
2023/10/28 00:41:17;;;;;;;17.35;8.93;;;;;;;-144.73;100.00;54684.78;4860834;29;20121;-75
2023/10/28 00:43:44;;;;;;;19.45;10.57;;;;;;;-144.73;100.00;54649.91;4859844;29;20033;-75
2023/10/28 00:46:09;;;;;;;16.42;8.07;;;;;;;-144.73;100.00;54670.44;4845571;29;20033;-75
2023/10/28 00:48:35;;;;;;;13.45;8.15;;;;;;;-144.73;100.00;54678.63;4860367;29;20104;-75
2023/10/28 00:51:00;;;;;;;21.85;10.63;;;;;;;-144.73;100.00;54682.75;4845566;29;20036;-75
2023/10/28 00:53:27;;;;;;;14.02;9.45;;;;;;;-144.73;100.00;54674.53;4849709;29;20030;-75
2023/10/28 00:55:54;;;;;;;18.90;9.43;;;;;;;-144.73;100.00;54670.44;4868851;29;20033;-75
2023/10/28 00:58:21;;;;;;;16.15;9.95;;;;;;;-144.73;100.00;54658.13;4853544;29;20105;-75
2023/10/28 01:00:48;;;;;;;19.95;10.50;;;;;;;-144.73;100.00;54680.69;4859972;29;20121;-75
2023/10/28 01:03:14;;;;;;;13.70;8.32;;;;;;;-144.73;100.00;54658.13;4841603;29;20077;-75
2023/10/28 01:05:40;;;;;;;14.68;9.40;;;;;;;-144.73;100.00;54670.44;4854821;29;20113;-75
2023/10/28 01:08:06;;;;;;;14.93;9.18;;;;;;;-144.73;100.00;54662.22;4847534;29;20157;-74
2023/10/28 01:10:33;;;;;;;14.82;8.52;;;;;;;-144.73;100.00;54670.44;4855146;29;20116;-75
2023/10/28 01:12:59;;;;;;;15.02;8.88;;;;;;;-144.73;100.00;54707.38;4857160;29;20026;-75
2023/10/28 01:15:26;;;;;;;12.68;8.55;;;;;;;-144.73;100.00;54654.00;4858045;29;20033;-75
2023/10/28 01:17:52;;;;;;;14.95;8.93;;;;;;;-144.73;100.00;54658.13;4853162;29;20093;-75
2023/10/28 01:20:17;;;;;;;14.93;9.32;;;;;;;-144.73;100.00;54670.44;4860541;29;20112;-75
2023/10/28 01:22:43;;;;;;;21.77;10.85;;;;;;;-144.73;100.00;54658.13;4853842;29;20461;-75
2023/10/28 01:25:09;;;;;;;14.82;9.48;;;;;;;-144.73;100.00;54684.78;4851688;29;20058;-75
2023/10/28 01:27:38;;;;;;;12.68;8.15;;;;;;;-144.73;100.00;54678.63;4859038;29;20033;-74
2023/10/28 01:30:05;;;;;;;12.93;9.23;;;;;;;-144.73;100.00;54695.06;4843455;29;20053;-74
2023/10/28 01:32:30;;;;;;;13.73;8.57;;;;;;;-144.73;100.00;54654.00;4849718;29;20041;-74
2023/10/28 01:34:56;;;;;;;13.57;8.73;;;;;;;-144.73;100.00;54690.97;4857394;29;20032;-74
2023/10/28 01:37:21;;;;;;;13.88;8.77;;;;;;;-144.73;100.00;54660.16;4843978;29;20060;-74
2023/10/28 01:39:48;;;;;;;14.90;9.30;;;;;;;-144.73;100.00;54713.53;4847680;29;20061;-74
2023/10/28 01:42:18;;;;;;;12.60;8.73;;;;;;;-144.73;100.00;54654.00;4863942;29;20037;-73
2023/10/28 01:44:45;;;;;;;13.45;8.95;;;;;;;-144.73;100.00;54651.97;4860241;29;20053;-73
2023/10/28 01:47:11;;;;;;;14.65;9.85;;;;;;;-144.73;100.00;54682.75;4843975;29;20040;-73
2023/10/28 01:49:37;;;;;;;12.20;8.30;;;;;;;-144.73;100.00;54670.44;4859297;29;20033;-72
2023/10/28 01:52:04;;;;;;;17.33;9.43;;;;;;;-144.73;100.00;54656.06;4844223;29;20037;-72
2023/10/28 01:54:30;;;;;;;12.45;8.52;;;;;;;-144.73;100.00;54670.44;4843656;29;20037;-71
2023/10/28 01:56:57;;;;;;;16.55;9.15;;;;;;;-144.73;100.00;54649.91;4843668;29;20104;-72
2023/10/28 01:59:24;;;;;;;11.45;8.52;;;;;;;-144.73;100.00;54678.63;4843817;29;20049;-71
2023/10/28 02:01:50;;;;;;;12.52;8.50;;;;;;;-144.73;100.00;54670.44;4844399;29;20041;-72
2023/10/28 02:04:15;;;;;;;19.65;10.50;;;;;;;-144.73;100.00;54658.13;4843704;29;20045;-71
2023/10/28 02:07:01;;;;;;;16.35;9.35;;;;;;;-144.73;100.00;54703.28;4846688;29;20034;-71
2023/10/28 02:09:33;;;;;;;13.93;9.57;;;;;;;-144.73;100.00;54686.84;4843458;29;20052;-72
2023/10/28 02:12:01;;;;;;;14.27;8.00;;;;;;;-144.73;100.00;54699.16;4844136;29;20164;-72
2023/10/28 02:14:27;;;;;;;13.45;8.23;;;;;;;-144.73;100.00;54674.53;4858642;29;20049;-72
2023/10/28 02:16:54;;;;;;;16.73;10.35;;;;;;;-144.73;100.00;54693.00;4860463;29;20040;-71
2023/10/28 02:19:20;;;;;;;15.80;9.82;;;;;;;-144.73;100.00;54690.97;4860552;29;20041;-72
2023/10/28 02:21:45;;;;;;;13.38;9.25;;;;;;;-144.73;100.00;54690.97;4843506;29;20064;-72
2023/10/28 02:24:12;;;;;;;17.63;9.50;;;;;;;-144.73;100.00;54713.53;4843688;29;20073;-72
2023/10/28 02:26:37;;;;;;;18.20;9.45;;;;;;;-144.73;100.00;54641.69;4859191;29;20029;-72
2023/10/28 02:29:02;;;;;;;15.60;9.63;;;;;;;-144.73;100.00;54670.44;4831511;29;20048;-72
2023/10/28 02:31:28;;;;;;;14.20;9.45;;;;;;;-144.73;100.00;54670.44;4847992;29;20038;-72
2023/10/28 02:33:54;;;;;;;15.80;9.23;;;;;;;-144.73;100.00;54697.13;4842616;29;20566;-72
2023/10/28 02:36:19;;;;;;;15.70;9.85;;;;;;;-144.73;100.00;54647.84;4860082;29;20029;-72
2023/10/28 02:38:44;;;;;;;20.33;10.48;;;;;;;-144.73;100.00;54686.84;4843169;29;20029;-72
2023/10/28 02:41:10;;;;;;;17.50;10.85;;;;;;;-144.73;100.00;54736.13;4859273;29;20041;-72
2023/10/28 02:43:36;;;;;;;13.90;9.25;;;;;;;-144.73;100.00;54670.44;4843185;29;20037;-73
2023/10/28 02:46:03;;;;;;;15.40;10.50;;;;;;;-144.73;100.00;54690.97;4842797;29;20120;-73
2023/10/28 02:48:29;;;;;;;25.38;11.27;;;;;;;-144.73;100.00;54678.63;4843433;29;20058;-72
2023/10/28 02:50:54;;;;;;;21.13;10.95;;;;;;;-144.73;100.00;54674.53;4858361;29;20038;-73
2023/10/28 02:53:19;;;;;;;19.67;9.93;;;;;;;-144.73;100.00;54711.47;4843469;29;20029;-73
2023/10/28 02:55:45;;;;;;;16.15;9.95;;;;;;;-144.73;100.00;54678.63;4842837;29;20068;-72
2023/10/28 02:58:10;;;;;;;33.92;10.30;;;;;;;-144.73;100.00;54711.47;4842987;29;20064;-73
2023/10/28 03:00:36;;;;;;;11.65;7.55;;;;;;;-144.73;100.00;54688.91;4859239;29;20041;-72
2023/10/28 03:03:04;;;;;;;18.83;10.05;;;;;;;-144.73;100.00;54674.53;4843267;29;20181;-73
2023/10/28 03:05:29;;;;;;;16.02;10.00;;;;;;;-144.73;100.00;54670.44;4842623;29;20038;-72
2023/10/28 03:07:55;;;;;;;18.23;10.05;;;;;;;-144.73;100.00;54690.97;4873452;29;20108;-73
2023/10/28 03:10:21;;;;;;;18.90;9.52;;;;;;;-144.73;100.00;54686.84;4873388;29;20034;-73
2023/10/28 03:12:47;;;;;;;16.60;10.20;;;;;;;-144.73;100.00;54678.63;4858286;29;20103;-73
2023/10/28 03:15:12;;;;;;;17.25;9.95;;;;;;;-144.73;100.00;54672.47;4857874;29;20034;-72
2023/10/28 03:17:38;;;;;;;20.50;10.10;;;;;;;-144.73;100.00;54649.91;4873954;29;20021;-72
2023/10/28 03:20:05;;;;;;;17.52;9.02;;;;;;;-144.73;100.00;54707.38;4857693;29;20037;-72
2023/10/28 03:22:31;;;;;;;18.65;11.27;;;;;;;-144.73;100.00;54682.75;4873335;29;20108;-72
2023/10/28 03:24:56;;;;;;;13.32;8.73;;;;;;;-144.73;100.00;54654.00;4858012;29;22332;-72
2023/10/28 03:27:21;;;;;;;17.15;10.77;;;;;;;-144.73;100.00;54701.22;4857814;29;20161;-72
2023/10/28 03:29:49;;;;;;;16.23;9.70;;;;;;;-144.73;100.00;54658.13;4857791;29;20052;-72
2023/10/28 03:32:14;;;;;;;22.75;9.60;;;;;;;-144.73;100.00;54713.53;4857791;29;20059;-72
2023/10/28 03:34:40;;;;;;;23.27;10.82;;;;;;;-144.73;100.00;54658.13;4858777;29;20479;-72
2023/10/28 03:37:05;;;;;;;17.85;11.02;;;;;;;-144.73;100.00;54682.75;4857870;29;20041;-72
2023/10/28 03:39:31;;;;;;;16.77;10.00;;;;;;;-144.73;100.00;54695.06;4857563;29;20132;-72
2023/10/28 03:41:56;;;;;;;18.95;10.88;;;;;;;-144.73;100.00;54707.38;4859290;29;20037;-72
2023/10/28 03:44:21;;;;;;;24.15;12.40;;;;;;;-144.73;100.00;54707.38;4872454;29;20508;-72
2023/10/28 03:46:47;;;;;;;22.02;11.70;;;;;;;-144.73;100.00;54645.78;4857784;29;20033;-72
2023/10/28 03:49:12;;;;;;;22.25;10.55;;;;;;;-144.73;100.00;54721.75;4858471;29;20070;-72
2023/10/28 03:51:40;;;;;;;19.90;10.70;;;;;;;-144.73;100.00;54649.91;4858150;29;20033;-72
2023/10/28 03:54:07;;;;;;;15.93;9.25;;;;;;;-144.73;100.00;54639.63;4872901;29;20041;-72
2023/10/28 03:56:32;;;;;;;19.58;11.50;;;;;;;-144.73;100.00;54674.53;4858792;29;20025;-72
2023/10/28 03:58:58;;;;;;;21.30;12.60;;;;;;;-144.73;100.00;54662.22;4857504;29;20073;-72
2023/10/28 04:01:23;;;;;;;17.88;10.73;;;;;;;-144.73;100.00;54658.13;4873515;29;20037;-72
2023/10/28 04:03:49;;;;;;;19.15;12.55;;;;;;;-144.73;100.00;54637.59;4857224;29;20085;-72
2023/10/28 04:06:15;;;;;;;19.40;12.40;;;;;;;-144.73;100.00;54654.00;4857529;29;20038;-72
2023/10/28 04:08:40;;;;;;;19.70;11.00;;;;;;;-144.73;100.00;54654.00;4858236;29;20109;-72
2023/10/28 04:11:06;;;;;;;28.75;13.27;;;;;;;-144.73;100.00;54662.22;4858822;29;20037;-72
2023/10/28 04:13:32;;;;;;;23.90;12.70;;;;;;;-144.73;100.00;54670.44;4857449;29;20065;-72
2023/10/28 04:15:57;;;;;;;25.35;12.77;;;;;;;-144.73;100.00;54645.78;4873056;29;20051;-72
2023/10/28 04:18:23;;;;;;;24.67;13.27;;;;;;;-144.73;100.00;54658.13;4873419;29;20029;-74
2023/10/28 04:20:50;;;;;;;25.83;13.43;;;;;;;-144.73;100.00;54678.63;4872718;29;20037;-73
2023/10/28 04:23:16;;;;;;;24.52;13.00;;;;;;;-144.73;100.00;54678.63;4872545;29;20045;-73
2023/10/28 04:25:42;;;;;;;25.27;12.38;;;;;;;-144.73;100.00;54670.44;4872444;29;20054;-73
2023/10/28 04:28:07;;;;;;;27.98;13.55;;;;;;;-144.73;100.00;54662.22;4858692;29;20030;-73
2023/10/28 04:30:33;;;;;;;32.65;15.77;;;;;;;-144.73;100.00;54654.00;4872371;29;20037;-73
2023/10/28 04:32:58;;;;;;;27.25;13.57;;;;;;;-144.73;100.00;54670.44;4872927;29;20030;-73
2023/10/28 04:35:23;;;;;;;29.73;14.60;;;;;;;-144.73;100.00;54672.47;4857030;29;20049;-73
2023/10/28 04:37:49;;;;;;;28.33;14.63;;;;;;;-144.73;100.00;54686.84;4857302;29;20029;-73
2023/10/28 04:40:14;;;;;;;33.22;17.08;;;;;;;-144.73;100.00;54682.75;4857585;29;20053;-73
2023/10/28 04:42:40;;;;;;;30.88;15.18;;;;;;;-144.73;100.00;54699.16;4841834;29;20037;-73
2023/10/28 04:45:06;;;;;;;34.05;14.63;;;;;;;-144.73;100.00;54670.44;4857823;29;20406;-73
2023/10/28 04:47:32;;;;;;;30.00;15.48;;;;;;;-144.73;100.00;54658.13;4857289;29;20034;-73
2023/10/28 04:49:58;;;;;;;34.20;15.80;;;;;;;-144.73;100.00;54686.84;4872466;29;20041;-73
2023/10/28 04:52:23;;;;;;;24.83;13.18;;;;;;;-144.73;100.00;54695.06;4852699;29;20044;-73
2023/10/28 04:54:49;;;;;;;27.10;14.15;;;;;;;-144.73;100.00;54658.13;4838687;29;20045;-73
2023/10/28 04:57:15;;;;;;;30.73;15.95;;;;;;;-144.73;100.00;54690.97;4840087;29;20512;-73
2023/10/28 04:59:41;;;;;;;33.22;14.80;;;;;;;-144.73;100.00;54674.53;4839238;29;20053;-73
2023/10/28 05:02:06;;;;;;;35.00;15.55;;;;;;;-144.73;100.00;54674.53;4839448;29;20041;-73
2023/10/28 05:04:32;;;;;;;27.00;14.77;;;;;;;-144.73;100.00;54660.16;4839122;29;20125;-73
2023/10/28 05:06:57;;;;;;;24.60;14.02;;;;;;;-144.73;100.00;54662.22;4823689;29;20030;-73
2023/10/28 05:09:23;;;;;;;30.80;15.05;;;;;;;-144.73;100.00;54674.53;4841042;29;20102;-73
2023/10/28 05:11:55;;;;;;;28.77;15.13;;;;;;;-144.73;100.00;54658.13;4843268;29;20478;-73
2023/10/28 05:14:21;;;;;;;31.25;15.20;;;;;;;-144.73;100.00;54682.75;4841500;29;20042;-73
2023/10/28 05:16:46;;;;;;;35.08;16.60;;;;;;;-144.73;100.00;54649.91;4841636;29;20430;-73
2023/10/28 05:19:12;;;;;;;33.63;16.50;;;;;;;-144.73;100.00;54631.44;4841623;29;20050;-73
2023/10/28 05:21:37;;;;;;;33.80;15.60;;;;;;;-144.73;100.00;54678.63;4826573;29;20034;-72
2023/10/28 05:24:03;;;;;;;34.70;18.45;;;;;;;-144.73;100.00;54658.13;4843109;29;20042;-73
2023/10/28 05:26:29;;;;;;;39.72;18.08;;;;;;;-144.73;100.00;54682.75;4841951;29;20038;-73
2023/10/28 05:28:54;;;;;;;32.17;15.30;;;;;;;-144.73;100.00;54658.13;4842098;29;20049;-72
2023/10/28 05:31:20;;;;;;;36.22;17.25;;;;;;;-144.73;100.00;54662.22;4826261;29;20061;-72
2023/10/28 05:33:45;;;;;;;36.28;17.38;;;;;;;-144.73;100.00;54690.97;4842280;29;20454;-71
2023/10/28 05:36:11;;;;;;;38.72;18.30;;;;;;;-144.73;100.00;54670.44;4854233;29;20025;-72
2023/10/28 05:38:36;;;;;;;34.35;17.77;;;;;;;-144.73;100.00;54686.84;4843777;29;20026;-75
2023/10/28 05:41:02;;;;;;;43.25;18.17;;;;;;;-144.73;100.00;54740.22;4844523;29;20116;-73
2023/10/28 05:43:27;;;;;;;37.55;17.92;;;;;;;-144.73;100.00;54699.16;4853490;29;20060;-75
2023/10/28 05:45:53;;;;;;;39.38;16.98;;;;;;;-144.73;100.00;54658.13;4859469;29;20045;-76
2023/10/28 05:48:18;;;;;;;37.30;17.63;;;;;;;-144.73;100.00;54641.69;4861159;29;20032;-76
2023/10/28 05:50:43;;;;;;;38.30;16.60;;;;;;;-144.73;100.00;54670.44;4859332;29;20049;-76
2023/10/28 05:53:09;;;;;;;49.20;18.90;;;;;;;-144.73;100.00;54699.16;4859871;29;20089;-76
2023/10/28 05:55:34;;;;;;;33.30;16.58;;;;;;;-144.73;100.00;54658.13;4859547;29;20045;-76
2023/10/28 05:58:00;;;;;;;44.85;19.50;;;;;;;-144.73;100.00;54684.78;4860843;29;20041;-77
2023/10/28 06:00:28;;;;;;;33.67;16.40;;;;;;;-144.73;100.00;54660.16;4862300;29;20117;-77
2023/10/28 06:02:53;;;;;;;43.08;17.33;;;;;;;-144.73;100.00;54686.84;4862674;29;20053;-77
2023/10/28 06:05:19;;;;;;;37.53;16.90;;;;;;;-144.73;100.00;54705.31;4860922;29;20090;-76
2023/10/28 06:07:47;;;;;;;34.53;15.63;;;;;;;-144.73;100.00;54670.44;4860338;29;20064;-76
2023/10/28 06:10:13;;;;;;;34.42;15.05;;;;;;;-144.73;100.00;54709.44;4845302;29;20065;-76
2023/10/28 06:12:39;;;;;;;39.00;16.42;;;;;;;-144.73;100.00;54695.06;4861098;29;20056;-76
2023/10/28 06:15:05;;;;;;;76.43;32.42;;;;;;;-144.73;100.00;54695.06;4845621;29;20033;-77
2023/10/28 06:17:30;;;;;;;38.58;17.30;;;;;;;-144.73;100.00;54674.53;4846029;29;20033;-77
2023/10/28 06:19:55;;;;;;;44.22;18.30;;;;;;;-144.73;100.00;54670.44;4860297;29;20052;-76
2023/10/28 06:22:21;;;;;;;40.83;17.65;;;;;;;-144.73;100.00;54699.16;4861906;29;20046;-77
2023/10/28 06:24:49;;;;;;;38.40;16.63;;;;;;;-144.73;100.00;54674.53;4861094;29;20120;-77
2023/10/28 06:27:14;;;;;;;50.22;19.38;;;;;;;-144.73;100.00;54709.44;4845928;29;20025;-77
2023/10/28 06:29:39;;;;;;;49.92;19.58;;;;;;;-144.73;100.00;54682.75;4860720;29;20502;-77
2023/10/28 06:32:06;;;;;;;37.47;15.88;;;;;;;-144.73;100.00;54641.69;4861722;29;20033;-77
2023/10/28 06:34:32;;;;;;;43.45;17.08;;;;;;;-144.73;100.00;54699.16;4844863;29;20049;-77
2023/10/28 06:36:57;;;;;;;42.97;17.92;;;;;;;-144.73;100.00;54682.75;4860657;29;20045;-74
2023/10/28 06:39:23;;;;;;;46.35;18.30;;;;;;;-144.73;100.00;54678.63;4844185;29;20093;-76
2023/10/28 06:41:48;;;;;;;34.60;16.40;;;;;;;-144.73;100.00;54682.75;4860725;29;20089;-77
2023/10/28 06:44:15;;;;;;;33.03;15.75;;;;;;;-144.73;100.00;54672.47;4861471;29;20033;-77
2023/10/28 06:46:40;;;;;;;32.08;14.38;;;;;;;-144.73;100.00;54699.16;4861386;29;20035;-77
2023/10/28 06:49:06;;;;;;;29.77;14.23;;;;;;;-144.73;100.00;54658.13;4859374;29;20112;-74
2023/10/28 06:51:32;;;;;;;35.00;16.60;;;;;;;-144.73;100.00;54670.44;4859039;29;20161;-75
2023/10/28 06:53:58;;;;;;;34.95;15.13;;;;;;;-144.73;100.00;54674.53;4859801;29;20042;-75
2023/10/28 06:56:25;;;;;;;37.33;16.40;;;;;;;-144.73;100.00;54690.97;4859058;29;20026;-76
2023/10/28 06:58:51;;;;;;;37.42;15.90;;;;;;;-144.73;100.00;54680.69;4843075;29;25006;-76
2023/10/28 07:01:18;;;;;;;32.20;14.77;;;;;;;-144.73;100.00;54654.00;4859544;29;20030;-75
2023/10/28 07:03:44;;;;;;;40.95;16.80;;;;;;;-144.73;100.00;54686.84;4843248;29;20036;-75
2023/10/28 07:06:14;;;;;;;29.15;13.52;;;;;;;-144.73;100.00;54641.69;4843766;29;20030;-76
2023/10/28 07:08:40;;;;;;;31.00;16.40;;;;;;;-144.73;100.00;54690.97;4858401;29;20026;-76
2023/10/28 07:11:05;;;;;;;31.42;13.70;;;;;;;-144.73;100.00;54688.91;4843136;29;20037;-76
2023/10/28 07:13:31;;;;;;;27.90;14.55;;;;;;;-144.73;100.00;54686.84;4858667;29;20033;-76
2023/10/28 07:16:02;;;;;;;51.30;18.98;;;;;;;-144.73;100.00;54662.22;4843332;29;20021;-75
2023/10/28 07:18:27;;;;;;;35.72;15.15;;;;;;;-144.73;100.00;54693.00;4859981;29;20105;-76
2023/10/28 07:20:53;;;;;;;27.73;12.40;;;;;;;-144.73;100.00;54674.53;4842477;29;20113;-76
2023/10/28 07:23:20;;;;;;;45.30;16.20;;;;;;;-144.73;100.00;54658.13;4859627;29;20025;-76
2023/10/28 07:25:45;;;;;;;36.17;14.27;;;;;;;-144.73;100.00;54670.44;4857310;29;20041;-76
2023/10/28 07:28:13;;;;;;;33.38;15.27;;;;;;;-144.73;100.00;54703.28;4842923;29;20465;-76
2023/10/28 07:30:45;;;;;;;40.15;16.20;;;;;;;-144.73;100.00;54699.16;4841882;29;20510;-75
2023/10/28 07:33:13;;;;;;;36.72;16.45;;;;;;;-144.73;100.00;54662.22;4858104;29;20363;-75
2023/10/28 07:35:42;;;;;;;40.80;15.45;;;;;;;-144.73;100.00;54682.75;4858781;29;20075;-75
2023/10/28 07:38:08;;;;;;;37.33;16.50;;;;;;;-144.73;100.00;54674.53;4842804;29;20029;-74
2023/10/28 07:40:33;;;;;;;35.80;15.23;;;;;;;-144.73;100.00;54662.22;4842548;29;20053;-74
2023/10/28 07:42:58;;;;;;;36.63;16.77;;;;;;;-144.73;100.00;54699.16;4842119;29;20064;-74
2023/10/28 07:45:24;;;;;;;40.78;15.95;;;;;;;-144.73;100.00;54658.13;4857256;29;20068;-74
2023/10/28 07:47:49;;;;;;;43.38;16.83;;;;;;;-144.73;100.00;54682.75;4842354;29;20033;-74
2023/10/28 07:50:15;;;;;;;36.33;15.73;;;;;;;-144.73;100.00;54678.63;4842076;29;20052;-74
2023/10/28 07:52:40;;;;;;;34.30;15.88;;;;;;;-144.73;100.00;54658.13;4842662;29;20040;-73
2023/10/28 07:55:07;;;;;;;29.23;15.48;;;;;;;-144.73;100.00;54678.63;4858289;29;20074;-73
2023/10/28 07:57:33;;;;;;;39.80;16.70;;;;;;;-144.73;100.00;54682.75;4857830;29;20072;-73
2023/10/28 07:59:59;;;;;;;33.92;14.80;;;;;;;-144.73;100.00;54682.75;4856675;29;20120;-74
2023/10/28 08:02:24;;;;;;;45.50;16.98;;;;;;;-144.73;100.00;54697.13;4858111;29;20032;-73
2023/10/28 08:04:53;;;;;;;34.67;16.50;;;;;;;-144.73;100.00;54707.38;4857472;29;20034;-73
2023/10/28 08:07:18;;;;;;;39.75;16.60;;;;;;;-144.73;100.00;54707.38;4857709;29;20113;-73
2023/10/28 08:09:45;;;;;;;40.22;16.90;;;;;;;-144.73;100.00;54690.97;4841407;29;20088;-74
2023/10/28 08:12:11;;;;;;;40.95;17.30;;;;;;;-144.73;100.00;54707.38;4857559;29;20029;-73
2023/10/28 08:14:36;;;;;;;39.03;16.38;;;;;;;-144.73;100.00;54680.69;4857328;29;20048;-75
2023/10/28 08:17:03;;;;;;;39.85;17.38;;;;;;;-144.73;100.00;54686.84;4857307;29;20112;-75
2023/10/28 08:19:29;;;;;;;36.97;15.60;;;;;;;-144.73;100.00;54674.53;4840458;29;20033;-75
2023/10/28 08:21:55;;;;;;;36.38;15.98;;;;;;;-144.73;100.00;54686.84;4840782;29;20029;-75
2023/10/28 08:24:22;;;;;;;34.65;15.05;;;;;;;-144.73;100.00;54670.44;4853312;29;20033;-76
2023/10/28 08:26:48;;;;;;;40.63;17.52;;;;;;;-144.73;100.00;54695.06;4843063;29;20545;-75
2023/10/28 08:29:14;;;;;;;34.55;16.52;;;;;;;-144.73;100.00;54658.13;4837485;29;20049;-75
2023/10/28 08:31:40;;;;;;;37.15;16.55;;;;;;;-144.73;100.00;54662.22;4853955;29;20049;-75
2023/10/28 08:34:06;;;;;;;34.90;17.38;;;;;;;-144.73;100.00;54656.06;4855177;29;20069;-75
2023/10/28 08:36:35;;;;;;;41.03;18.95;;;;;;;-144.73;100.00;54707.38;4854649;29;20022;-75
2023/10/28 08:39:01;;;;;;;40.30;17.45;;;;;;;-144.73;100.00;54690.97;4853282;29;20042;-76
2023/10/28 08:41:26;;;;;;;44.13;17.73;;;;;;;-144.73;100.00;54707.38;4855013;29;20033;-75
2023/10/28 08:43:53;;;;;;;43.08;17.30;;;;;;;-144.73;100.00;54695.06;4855710;29;20037;-75
2023/10/28 08:46:18;;;;;;;42.40;17.15;;;;;;;-144.73;100.00;54703.28;4853616;29;20481;-73
2023/10/28 08:48:44;;;;;;;35.25;16.88;;;;;;;-144.73;100.00;54684.78;4857509;29;20047;-72
2023/10/28 08:51:12;;;;;;;39.63;17.30;;;;;;;-144.73;100.00;54670.44;4849469;29;20033;-72
2023/10/28 08:53:38;;;;;;;41.90;17.38;;;;;;;-144.73;100.00;54674.53;4855476;29;20481;-72
2023/10/28 08:56:05;;;;;;;44.72;18.75;;;;;;;-144.73;100.00;54690.97;4842554;29;20026;-72
2023/10/28 08:58:30;;;;;;;36.45;17.88;;;;;;;-144.73;100.00;54695.06;4851444;29;20032;-73
2023/10/28 09:01:01;;;;;;;42.78;19.13;;;;;;;-144.73;100.00;54695.06;4859294;29;20045;-73
2023/10/28 09:03:30;;;;;;;36.70;17.88;;;;;;;-144.73;100.00;54715.59;4858272;29;20129;-73
2023/10/28 09:05:56;;;;;;;40.30;18.48;;;;;;;-144.73;100.00;54690.97;4841261;29;20502;-74
2023/10/28 09:08:23;;;;;;;36.92;18.00;;;;;;;-144.73;100.00;54703.28;4857809;29;20093;-74
2023/10/28 09:10:49;;;;;;;43.35;18.65;;;;;;;-144.73;100.00;54703.28;4844271;29;20037;-74
2023/10/28 09:13:15;;;;;;;44.95;19.15;;;;;;;-144.73;100.00;54662.22;4853602;29;20048;-74
2023/10/28 09:15:41;;;;;;;35.38;17.05;;;;;;;-144.73;100.00;54682.75;4849872;29;20038;-74
2023/10/28 09:18:08;;;;;;;38.85;17.60;;;;;;;-144.73;100.00;54682.75;4843493;29;20033;-74
2023/10/28 09:20:37;;;;;;;39.97;18.60;;;;;;;-144.73;100.00;54633.47;4856938;29;20045;-74
2023/10/28 09:23:03;;;;;;;36.15;17.35;;;;;;;-144.73;100.00;54699.16;4858291;29;20053;-75
2023/10/28 09:25:28;;;;;;;32.63;17.40;;;;;;;-144.73;100.00;54678.63;4853072;29;20080;-75
2023/10/28 09:27:54;;;;;;;33.00;16.58;;;;;;;-144.73;100.00;54699.16;4858023;29;20058;-75
2023/10/28 09:30:19;;;;;;;34.13;17.45;;;;;;;-144.73;100.00;54697.13;4861427;29;20057;-74
2023/10/28 09:32:45;;;;;;;32.80;16.92;;;;;;;-144.73;100.00;54695.06;4861428;29;20053;-75
2023/10/28 09:35:11;;;;;;;39.85;17.88;;;;;;;-144.73;100.00;54717.66;4862016;29;20037;-74
2023/10/28 09:37:41;;;;;;;44.55;18.67;;;;;;;-144.73;100.00;54686.84;4866160;29;20040;-74
2023/10/28 09:40:08;;;;;;;38.72;19.33;;;;;;;-144.73;100.00;54693.00;4852038;29;20077;-75
2023/10/28 09:42:36;;;;;;;31.95;16.77;;;;;;;-144.73;100.00;54693.00;4859339;29;20025;-74
2023/10/28 09:45:06;;;;;;;34.45;17.90;;;;;;;-144.73;100.00;54678.63;4870020;29;20116;-74
2023/10/28 09:47:47;;;;;;;42.13;18.47;;;;;;;-144.73;100.00;54654.00;4844448;29;20022;-75
2023/10/28 09:50:14;;;;;;;32.23;17.10;;;;;;;-144.73;100.00;54658.13;4871343;29;20038;-75
2023/10/28 09:52:43;;;;;;;38.42;18.02;;;;;;;-144.73;100.00;54686.84;4860770;29;20029;-75
2023/10/28 09:55:13;;;;;;;41.15;17.50;;;;;;;-144.73;100.00;54686.84;4844262;29;20044;-74
2023/10/28 09:57:40;;;;;;;39.92;19.38;;;;;;;-144.73;100.00;54670.44;4847120;29;20045;-75
2023/10/28 10:00:17;;;;;;;34.90;16.80;;;;;;;-144.73;100.00;54690.97;4853418;29;20065;-75
2023/10/28 10:02:52;;;;;;;37.80;17.30;;;;;;;-144.73;100.00;54707.38;4854842;29;20233;-74
2023/10/28 10:05:29;;;;;;;41.08;18.23;;;;;;;-144.73;100.00;54658.13;4862225;29;20033;-74
2023/10/28 10:07:54;;;;;;;40.67;19.25;;;;;;;-144.73;100.00;54695.06;4854385;29;20037;-74
2023/10/28 10:10:20;;;;;;;36.90;18.52;;;;;;;-144.73;100.00;54695.06;4845410;29;20029;-74
2023/10/28 10:12:49;;;;;;;46.20;21.23;;;;;;;-144.73;100.00;54715.59;4862652;29;20049;-74
2023/10/28 10:15:19;;;;;;;55.05;22.77;;;;;;;-144.73;100.00;54676.59;4859125;29;20037;-74
2023/10/28 10:18:06;;;;;;;47.28;21.55;;;;;;;-144.73;100.00;54658.13;4853126;29;20041;-74
2023/10/28 10:20:35;;;;;;;45.67;21.30;;;;;;;-144.73;100.00;54707.38;4852401;29;20029;-74
2023/10/28 10:23:01;;;;;;;43.30;20.23;;;;;;;-144.73;100.00;54688.91;4859793;29;20500;-74
2023/10/28 10:25:41;;;;;;;43.60;21.25;;;;;;;-144.73;100.00;54738.16;4857011;29;20166;-73
2023/10/28 10:28:15;;;;;;;44.63;20.58;;;;;;;-144.73;100.00;54686.84;4856415;29;20040;-73
2023/10/28 10:30:42;;;;;;;37.40;18.98;;;;;;;-144.73;100.00;54686.84;4835586;29;20061;-73
2023/10/28 10:33:08;;;;;;;42.67;19.77;;;;;;;-144.73;100.00;54723.81;4857889;29;20033;-74
2023/10/28 10:35:34;;;;;;;41.53;20.42;;;;;;;-144.73;100.00;54711.47;4857574;29;20174;-73
2023/10/28 10:38:05;;;;;;;43.25;20.92;;;;;;;-144.73;100.00;54693.00;4845388;29;20033;-74
2023/10/28 10:40:58;;;;;;;44.97;20.73;;;;;;;-144.73;100.00;54658.13;4858757;29;20109;-74
2023/10/28 10:43:29;;;;;;;52.42;22.52;;;;;;;-144.73;100.00;54707.38;4845012;29;20025;-74
2023/10/28 10:45:55;;;;;;;47.45;23.27;;;;;;;-144.73;100.00;54703.28;4855266;29;20041;-74
2023/10/28 10:48:22;;;;;;;50.15;22.02;;;;;;;-144.73;100.00;54639.63;4858205;29;20033;-74
2023/10/28 10:50:47;;;;;;;55.95;23.45;;;;;;;-144.73;100.00;54670.44;4848587;29;20041;-74